createdAt,value
2022-08-04T00:00:05.643Z,26.57
2022-08-04T00:02:13.754Z,26.53
2022-08-04T00:04:30.028Z,26.50
2022-08-04T00:06:48.025Z,26.44
2022-08-04T00:08:57.522Z,26.39
2022-08-04T00:11:05.808Z,26.36
2022-08-04T00:13:12.315Z,26.32
2022-08-04T00:15:19.038Z,26.29
2022-08-04T00:17:27.263Z,26.25
2022-08-04T00:19:36.061Z,26.22
2022-08-04T00:21:45.200Z,26.19
2022-08-04T00:24:10.900Z,26.14
2022-08-04T00:26:20.482Z,26.12
2022-08-04T00:28:26.302Z,26.08
2022-08-04T00:30:31.305Z,26.08
2022-08-04T00:32:36.328Z,26.02
2022-08-04T00:34:42.062Z,25.99
2022-08-04T00:36:47.603Z,25.97
2022-08-04T00:38:53.163Z,25.95
2022-08-04T00:41:07.133Z,25.94
2022-08-04T00:43:21.673Z,25.94
2022-08-04T00:46:15.773Z,25.92
2022-08-04T00:48:35.542Z,25.89
2022-08-04T00:50:47.958Z,25.88
2022-08-04T00:53:09.500Z,25.84
2022-08-04T00:55:39.742Z,25.82
2022-08-04T00:58:06.026Z,25.78
2022-08-04T01:00:16.258Z,25.75
2022-08-04T01:02:37.419Z,25.73
2022-08-04T01:04:52.411Z,25.70
2022-08-04T01:07:17.901Z,25.68
2022-08-04T01:09:37.464Z,25.64
2022-08-04T01:12:00.065Z,25.58
2022-08-04T01:14:27.375Z,25.57
2022-08-04T01:16:38.108Z,25.57
2022-08-04T01:18:57.104Z,25.54
2022-08-04T01:21:20.972Z,25.52
2022-08-04T01:23:52.451Z,25.53
2022-08-04T01:26:43.972Z,25.50
2022-08-04T01:29:04.834Z,25.47
2022-08-04T01:31:23.657Z,25.46
2022-08-04T01:33:32.968Z,25.45
2022-08-04T01:35:59.629Z,25.40
2022-08-04T01:38:18.292Z,25.34
2022-08-04T01:40:29.378Z,25.33
2022-08-04T01:42:36.727Z,25.33
2022-08-04T01:44:44.524Z,25.33
2022-08-04T01:46:52.808Z,25.29
2022-08-04T01:48:59.109Z,25.25
2022-08-04T01:51:07.789Z,25.21
2022-08-04T01:53:13.295Z,25.14
2022-08-04T01:55:19.381Z,25.10
2022-08-04T01:57:38.713Z,25.07
2022-08-04T01:59:48.363Z,25.03
2022-08-04T02:01:53.381Z,25.03
2022-08-04T02:04:18.455Z,24.99
2022-08-04T02:06:33.297Z,24.94
2022-08-04T02:08:48.729Z,24.91
2022-08-04T02:10:57.630Z,24.82
2022-08-04T02:13:14.625Z,24.79
2022-08-04T02:15:31.754Z,24.78
2022-08-04T02:17:49.182Z,24.76
2022-08-04T02:20:18.127Z,24.73
2022-08-04T02:22:25.193Z,24.74
2022-08-04T02:24:32.796Z,24.72
2022-08-04T02:26:43.667Z,24.70
2022-08-04T02:28:51.203Z,24.68
2022-08-04T02:31:11.333Z,24.68
2022-08-04T02:33:22.157Z,24.62
2022-08-04T02:35:30.013Z,24.58
2022-08-04T02:37:36.545Z,24.58
2022-08-04T02:39:48.133Z,24.55
2022-08-04T02:41:57.282Z,24.50
2022-08-04T02:44:04.023Z,24.42
2022-08-04T02:46:17.855Z,24.37
2022-08-04T02:48:31.310Z,24.35
2022-08-04T02:50:38.273Z,24.32
2022-08-04T02:52:46.250Z,24.28
2022-08-04T02:54:56.072Z,24.25
2022-08-04T02:57:04.539Z,24.26
2022-08-04T02:59:15.054Z,24.26
2022-08-04T03:01:26.020Z,24.29
2022-08-04T03:03:40.126Z,24.27
2022-08-04T03:06:01.937Z,24.27
2022-08-04T03:08:42.008Z,24.27
2022-08-04T03:11:19.577Z,24.25
2022-08-04T03:13:39.837Z,24.25
2022-08-04T03:16:01.975Z,24.25
2022-08-04T03:18:42.777Z,24.23
2022-08-04T03:21:14.498Z,24.13
2022-08-04T03:23:56.803Z,24.05
2022-08-04T03:26:32.432Z,23.99
2022-08-04T03:29:05.705Z,23.86
2022-08-04T03:31:38.640Z,23.77
2022-08-04T03:33:52.453Z,23.75
2022-08-04T03:36:31.797Z,23.77
2022-08-04T03:39:09.627Z,23.77
2022-08-04T03:42:03.637Z,23.76
2022-08-04T03:44:38.854Z,23.71
2022-08-04T03:46:58.466Z,23.65
2022-08-04T03:49:37.659Z,23.63
2022-08-04T03:52:05.399Z,23.60
2022-08-04T03:54:36.933Z,23.58
2022-08-04T03:57:05.628Z,23.55
2022-08-04T03:59:27.364Z,23.53
2022-08-04T04:02:16.334Z,23.52
2022-08-04T04:04:47.313Z,23.52
2022-08-04T04:07:43.697Z,23.49
2022-08-04T04:10:29.484Z,23.45
2022-08-04T04:13:01.226Z,23.42
2022-08-04T04:15:28.960Z,23.40
2022-08-04T04:17:54.654Z,23.42
2022-08-04T04:20:36.091Z,23.41
2022-08-04T04:23:13.688Z,23.40
2022-08-04T04:25:34.118Z,23.43
2022-08-04T04:27:54.995Z,23.44
2022-08-04T04:30:26.168Z,23.46
2022-08-04T04:32:42.044Z,23.53
2022-08-04T04:34:56.197Z,23.56
2022-08-04T04:37:20.685Z,23.60
2022-08-04T04:39:35.330Z,23.63
2022-08-04T04:42:00.034Z,23.65
2022-08-04T04:44:49.637Z,23.68
2022-08-04T04:47:04.688Z,23.67
2022-08-04T04:49:20.176Z,23.64
2022-08-04T04:51:34.682Z,23.60
2022-08-04T04:54:00.045Z,23.61
2022-08-04T04:56:11.733Z,23.50
2022-08-04T04:58:21.275Z,23.52
2022-08-04T05:00:38.464Z,23.55
2022-08-04T05:03:09.349Z,23.60
2022-08-04T05:05:28.206Z,23.66
2022-08-04T05:07:58.500Z,23.71
2022-08-04T05:10:14.264Z,23.71
2022-08-04T05:14:32.846Z,23.73
2022-08-04T05:15:14.986Z,23.69
2022-08-04T05:17:28.805Z,23.71
2022-08-04T05:19:46.308Z,23.73
2022-08-04T05:21:55.987Z,23.79
2022-08-04T05:24:09.447Z,23.91
2022-08-04T05:26:19.238Z,23.99
2022-08-04T05:28:28.892Z,24.08
2022-08-04T05:30:38.079Z,24.18
2022-08-04T05:32:59.168Z,24.26
2022-08-04T05:35:10.276Z,24.35
2022-08-04T05:37:20.659Z,24.46
2022-08-04T05:39:33.797Z,24.50
2022-08-04T05:41:47.737Z,24.55
2022-08-04T05:44:01.787Z,24.61
2022-08-04T05:46:07.827Z,24.66
2022-08-04T05:48:15.628Z,24.73
2022-08-04T05:50:21.411Z,24.80
2022-08-04T05:52:27.525Z,24.87
2022-08-04T05:54:35.140Z,24.91
2022-08-04T05:56:40.972Z,24.97
2022-08-04T05:58:47.494Z,25.06
2022-08-04T06:00:54.343Z,25.29
2022-08-04T06:03:01.987Z,25.49
2022-08-04T06:05:14.753Z,25.59
2022-08-04T06:07:20.412Z,25.64
2022-08-04T06:09:25.781Z,25.68
2022-08-04T06:11:31.984Z,25.70
2022-08-04T06:14:00.363Z,25.75
2022-08-04T06:16:08.444Z,25.78
2022-08-04T06:19:58.635Z,25.82
2022-08-04T06:20:53.654Z,25.86
2022-08-04T06:23:02.881Z,25.92
2022-08-04T06:25:09.796Z,25.97
2022-08-04T06:27:15.677Z,26.01
2022-08-04T06:29:25.624Z,26.06
2022-08-04T06:32:27.962Z,26.18
2022-08-04T06:34:10.773Z,26.29
2022-08-04T06:36:18.749Z,26.37
2022-08-04T06:38:24.873Z,26.47
2022-08-04T06:40:33.884Z,26.53
2022-08-04T06:42:40.513Z,26.55
2022-08-04T06:44:46.073Z,26.58
2022-08-04T06:46:55.507Z,26.64
2022-08-04T06:49:01.141Z,26.69
2022-08-04T06:51:27.185Z,26.77
2022-08-04T06:53:34.206Z,26.82
2022-08-04T06:55:40.046Z,26.86
2022-08-04T06:57:46.855Z,26.94
2022-08-04T06:59:56.693Z,27.02
2022-08-04T07:02:03.274Z,27.10
2022-08-04T07:04:08.851Z,27.15
2022-08-04T07:06:15.054Z,27.21
2022-08-04T07:08:20.454Z,27.30
2022-08-04T07:10:29.581Z,27.40
2022-08-04T07:12:35.157Z,27.50
2022-08-04T07:14:42.114Z,27.60
2022-08-04T07:16:48.363Z,27.66
2022-08-04T07:18:53.395Z,27.79
2022-08-04T07:20:58.347Z,27.92
2022-08-04T07:23:04.447Z,28.05
2022-08-04T07:25:13.277Z,28.17
2022-08-04T07:27:47.596Z,28.25
2022-08-04T07:29:46.159Z,28.33
2022-08-04T07:31:52.191Z,28.37
2022-08-04T07:34:17.356Z,28.42
2022-08-04T07:36:23.647Z,28.45
2022-08-04T07:38:37.576Z,28.54
2022-08-04T07:40:51.375Z,28.58
2022-08-04T07:42:59.312Z,28.65
2022-08-04T07:45:04.351Z,28.76
2022-08-04T07:47:10.690Z,28.88
2022-08-04T07:49:54.397Z,28.97
2022-08-04T07:51:41.436Z,29.09
2022-08-04T07:53:53.934Z,29.21
2022-08-04T07:56:01.297Z,29.33
2022-08-04T07:58:08.899Z,29.42
2022-08-04T08:00:15.812Z,29.50
2022-08-04T08:02:23.691Z,29.58
2022-08-04T08:04:29.096Z,29.68
2022-08-04T08:06:37.528Z,29.81
2022-08-04T08:08:46.249Z,29.92
2022-08-04T08:10:51.602Z,30.04
2022-08-04T08:12:57.280Z,30.13
2022-08-04T08:15:05.256Z,30.22
2022-08-04T08:17:11.615Z,30.31
2022-08-04T08:19:16.297Z,30.29
2022-08-04T08:21:23.500Z,30.42
2022-08-04T08:23:29.655Z,30.54
2022-08-04T08:25:35.861Z,30.57
2022-08-04T08:27:41.011Z,30.63
2022-08-04T08:30:01.377Z,30.71
2022-08-04T08:32:13.291Z,30.85
2022-08-04T08:34:27.580Z,30.94
2022-08-04T08:36:40.758Z,31.05
2022-08-04T08:38:52.474Z,31.12
2022-08-04T08:41:10.366Z,31.15
2022-08-04T08:44:04.747Z,31.28
2022-08-04T08:46:48.546Z,31.39
2022-08-04T08:49:10.652Z,31.46
2022-08-04T08:52:01.441Z,31.54
2022-08-04T08:54:32.888Z,31.59
2022-08-04T08:56:46.176Z,31.65
2022-08-04T08:59:15.106Z,31.69
2022-08-04T09:01:36.239Z,31.73
2022-08-04T09:04:30.094Z,31.82
2022-08-04T09:06:56.805Z,31.90
2022-08-04T09:09:18.101Z,32.00
2022-08-04T09:11:26.644Z,32.13
2022-08-04T09:13:37.035Z,32.24
2022-08-04T09:15:52.378Z,32.25
2022-08-04T09:18:05.209Z,32.35
2022-08-04T09:20:19.216Z,32.38
2022-08-04T09:22:33.120Z,32.45
2022-08-04T09:24:53.608Z,32.54
2022-08-04T09:27:03.037Z,32.60
2022-08-04T09:29:17.247Z,32.63
2022-08-04T09:31:26.190Z,32.67
2022-08-04T09:33:46.161Z,32.67
2022-08-04T09:36:00.288Z,32.77
2022-08-04T09:38:13.835Z,32.87
2022-08-04T09:40:31.364Z,32.89
2022-08-04T09:43:01.232Z,32.91
2022-08-04T09:45:22.472Z,32.97
2022-08-04T09:47:39.487Z,33.00
2022-08-04T09:49:51.607Z,33.00
2022-08-04T09:52:08.874Z,33.01
2022-08-04T09:54:30.618Z,33.03
2022-08-04T09:56:44.379Z,33.08
2022-08-04T09:58:58.750Z,33.13
2022-08-04T10:01:05.509Z,33.19
2022-08-04T10:03:19.157Z,33.18
2022-08-04T10:05:26.301Z,33.23
2022-08-04T10:08:04.613Z,33.29
2022-08-04T10:10:23.891Z,33.28
2022-08-04T10:12:40.073Z,33.33
2022-08-04T10:14:56.042Z,33.35
2022-08-04T10:17:18.866Z,33.33
2022-08-04T10:19:29.004Z,33.34
2022-08-04T10:21:59.672Z,33.42
2022-08-04T10:24:29.991Z,33.44
2022-08-04T10:26:46.020Z,33.44
2022-08-04T10:28:56.399Z,33.49
2022-08-04T10:31:09.876Z,33.50
2022-08-04T10:33:21.222Z,33.47
2022-08-04T10:35:29.344Z,33.53
2022-08-04T10:37:59.829Z,33.57
2022-08-04T10:40:27.496Z,33.64
2022-08-04T10:42:38.766Z,33.73
2022-08-04T10:44:57.678Z,33.77
2022-08-04T10:47:07.843Z,33.81
2022-08-04T10:49:18.076Z,33.84
2022-08-04T10:51:57.572Z,33.89
2022-08-04T10:54:03.225Z,33.94
2022-08-04T10:56:18.264Z,33.99
2022-08-04T10:58:47.083Z,33.98
2022-08-04T11:00:59.061Z,33.93
2022-08-04T11:03:11.684Z,33.89
2022-08-04T11:05:28.350Z,33.89
2022-08-04T11:07:35.540Z,33.78
2022-08-04T11:09:45.705Z,33.74
2022-08-04T11:12:01.240Z,33.70
2022-08-04T11:14:10.882Z,33.70
2022-08-04T11:16:22.390Z,33.88
2022-08-04T11:18:37.323Z,33.94
2022-08-04T11:20:47.987Z,33.94
2022-08-04T11:23:01.288Z,33.98
2022-08-04T11:25:14.420Z,33.97
2022-08-04T11:27:31.158Z,33.93
2022-08-04T11:29:43.409Z,34.00
2022-08-04T11:31:52.690Z,34.01
2022-08-04T11:34:06.103Z,33.93
2022-08-04T11:36:23.205Z,33.97
2022-08-04T11:38:34.520Z,34.01
2022-08-04T11:41:02.136Z,34.04
2022-08-04T11:43:55.835Z,34.14
2022-08-04T11:45:52.330Z,34.19
2022-08-04T11:48:01.824Z,34.20
2022-08-04T11:50:12.712Z,34.19
2022-08-04T11:52:22.343Z,34.24
2022-08-04T11:54:27.866Z,34.28
2022-08-04T11:56:36.753Z,34.26
2022-08-04T11:58:50.520Z,34.28
2022-08-04T12:01:01.931Z,34.30
2022-08-04T12:03:18.636Z,34.35
2022-08-04T12:05:36.527Z,34.44
2022-08-04T12:07:51.738Z,34.43
2022-08-04T12:10:06.296Z,34.41
2022-08-04T12:12:22.286Z,34.40
2022-08-04T12:14:44.475Z,34.40
2022-08-04T12:16:58.823Z,34.38
2022-08-04T12:19:06.805Z,34.32
2022-08-04T12:21:18.781Z,34.28
2022-08-04T12:23:29.053Z,34.29
2022-08-04T12:25:44.731Z,34.35
2022-08-04T12:27:54.874Z,34.39
2022-08-04T12:30:57.969Z,34.35
2022-08-04T12:32:32.551Z,34.22
2022-08-04T12:34:43.260Z,34.19
2022-08-04T12:36:59.523Z,34.20
2022-08-04T12:39:13.287Z,34.17
2022-08-04T12:41:23.793Z,34.14
2022-08-04T12:43:38.074Z,34.06
2022-08-04T12:45:52.422Z,33.96
2022-08-04T12:48:00.874Z,33.98
2022-08-04T12:50:07.894Z,34.02
2022-08-04T12:52:15.025Z,34.09
2022-08-04T12:54:29.198Z,34.17
2022-08-04T12:56:34.817Z,34.19
2022-08-04T12:58:44.066Z,34.23
2022-08-04T13:00:56.600Z,34.26
2022-08-04T13:03:10.193Z,34.27
2022-08-04T13:05:17.569Z,34.29
2022-08-04T13:07:25.583Z,34.37
2022-08-04T13:09:34.839Z,34.37
2022-08-04T13:11:43.750Z,34.41
2022-08-04T13:14:00.698Z,34.44
2022-08-04T13:16:17.639Z,34.51
2022-08-04T13:18:27.406Z,34.55
2022-08-04T13:20:36.610Z,34.68
2022-08-04T13:22:46.697Z,34.80
2022-08-04T13:25:18.398Z,34.88
2022-08-04T13:27:21.306Z,35.04
2022-08-04T13:29:59.305Z,35.12
2022-08-04T13:31:56.898Z,35.21
2022-08-04T13:34:19.297Z,35.27
2022-08-04T13:36:28.910Z,35.31
2022-08-04T13:38:35.536Z,35.39
2022-08-04T13:40:43.241Z,35.45
2022-08-04T13:42:52.236Z,35.46
2022-08-04T13:45:00.324Z,35.43
2022-08-04T13:47:14.658Z,35.55
2022-08-04T13:49:43.017Z,35.64
2022-08-04T13:51:57.598Z,35.77
2022-08-04T13:54:04.288Z,35.88
2022-08-04T13:56:12.886Z,36.02
2022-08-04T13:58:24.299Z,36.09
2022-08-04T14:00:40.579Z,36.08
2022-08-04T14:02:52.690Z,36.20
2022-08-04T14:05:00.229Z,36.36
2022-08-04T14:07:18.036Z,36.42
2022-08-04T14:09:35.683Z,36.43
2022-08-04T14:12:06.566Z,36.50
2022-08-04T14:14:18.128Z,36.67
2022-08-04T14:16:23.651Z,36.65
2022-08-04T14:18:33.247Z,36.66
2022-08-04T14:20:38.130Z,36.72
2022-08-04T14:22:45.251Z,36.87
2022-08-04T14:24:59.393Z,37.06
2022-08-04T14:27:05.125Z,37.06
2022-08-04T14:29:27.628Z,36.99
2022-08-04T14:31:34.178Z,36.94
2022-08-04T14:34:02.343Z,36.88
2022-08-04T14:36:14.872Z,36.93
2022-08-04T14:38:20.940Z,37.03
2022-08-04T14:40:31.014Z,37.09
2022-08-04T14:42:53.841Z,37.13
2022-08-04T14:45:01.921Z,37.36
2022-08-04T14:47:07.044Z,37.46
2022-08-04T14:49:21.875Z,37.62
2022-08-04T14:51:36.787Z,37.67
2022-08-04T14:53:41.518Z,37.77
2022-08-04T14:55:48.913Z,37.94
2022-08-04T14:58:34.747Z,38.16
2022-08-04T15:00:28.987Z,38.34
2022-08-04T15:02:36.031Z,38.41
2022-08-04T15:04:45.241Z,38.58
2022-08-04T15:06:50.749Z,38.71
2022-08-04T15:08:57.674Z,38.84
2022-08-04T15:11:03.734Z,38.95
2022-08-04T15:13:12.574Z,38.91
2022-08-04T15:15:35.891Z,39.01
2022-08-04T15:17:43.410Z,39.05
2022-08-04T15:19:55.979Z,39.19
2022-08-04T15:22:01.962Z,39.31
2022-08-04T15:24:08.374Z,39.45
2022-08-04T15:26:16.154Z,39.57
2022-08-04T15:28:23.662Z,39.63
2022-08-04T15:30:30.767Z,39.61
2022-08-04T15:32:38.632Z,39.76
2022-08-04T15:34:51.403Z,39.92
2022-08-04T15:37:02.000Z,40.06
2022-08-04T15:39:14.759Z,40.12
2022-08-04T15:41:29.175Z,40.11
2022-08-04T15:43:55.768Z,40.20
2022-08-04T15:46:41.454Z,40.34
2022-08-04T15:48:30.883Z,40.43
2022-08-04T15:50:59.329Z,40.64
2022-08-04T15:53:10.809Z,40.70
2022-08-04T15:55:34.777Z,40.72
2022-08-04T15:58:00.844Z,40.80
2022-08-04T16:00:14.264Z,40.77
2022-08-04T16:02:38.737Z,40.64
2022-08-04T16:04:43.678Z,40.58
2022-08-04T16:06:52.575Z,40.75
2022-08-04T16:09:06.351Z,40.78
2022-08-04T16:11:32.864Z,40.69
2022-08-04T16:13:38.133Z,40.77
2022-08-04T16:15:45.372Z,40.92
2022-08-04T16:17:50.286Z,41.09
2022-08-04T16:20:06.465Z,41.25
2022-08-04T16:22:33.877Z,41.26
2022-08-04T16:24:41.106Z,41.14
2022-08-04T16:26:57.366Z,40.99
2022-08-04T16:29:02.282Z,40.70
2022-08-04T16:31:08.599Z,40.32
2022-08-04T16:33:13.550Z,39.81
2022-08-04T16:35:26.192Z,39.43
2022-08-04T16:37:37.838Z,39.04
2022-08-04T16:39:50.474Z,38.77
2022-08-04T16:41:56.825Z,38.38
2022-08-04T16:44:52.077Z,38.08
2022-08-04T16:47:21.382Z,37.73
2022-08-04T16:49:21.789Z,37.49
2022-08-04T16:51:34.762Z,37.36
2022-08-04T16:54:02.663Z,37.19
2022-08-04T16:56:09.983Z,37.05
2022-08-04T16:58:15.060Z,36.92
2022-08-04T17:00:21.027Z,36.80
2022-08-04T17:02:27.206Z,36.71
2022-08-04T17:04:33.310Z,36.58
2022-08-04T17:06:43.079Z,36.49
2022-08-04T17:08:52.598Z,36.34
2022-08-04T17:10:57.490Z,36.25
2022-08-04T17:13:20.873Z,36.19
2022-08-04T17:15:29.010Z,36.04
2022-08-04T17:18:05.921Z,35.95
2022-08-04T17:19:58.866Z,35.87
2022-08-04T17:22:07.388Z,35.80
2022-08-04T17:24:18.424Z,35.75
2022-08-04T17:26:40.227Z,35.72
2022-08-04T17:28:50.297Z,35.67
2022-08-04T17:30:57.258Z,35.64
2022-08-04T17:33:02.167Z,35.64
2022-08-04T17:35:07.848Z,35.57
2022-08-04T17:37:40.284Z,35.51
2022-08-04T17:39:40.233Z,35.41
2022-08-04T17:41:49.183Z,35.36
2022-08-04T17:44:04.772Z,35.33
2022-08-04T17:46:28.488Z,35.27
2022-08-04T17:48:34.684Z,35.22
2022-08-04T17:50:43.279Z,35.19
2022-08-04T17:53:01.564Z,35.15
2022-08-04T17:55:16.317Z,35.10
2022-08-04T17:57:25.791Z,35.03
2022-08-04T17:59:52.369Z,35.03
2022-08-04T18:02:05.745Z,34.97
2022-08-04T18:04:41.254Z,34.93
2022-08-04T18:08:32.414Z,34.83
2022-08-04T18:10:02.396Z,34.77
2022-08-04T18:12:04.605Z,34.67
2022-08-04T18:14:09.532Z,34.59
2022-08-04T18:16:21.972Z,34.59
2022-08-04T18:18:28.226Z,34.54
2022-08-04T18:20:33.493Z,34.48
2022-08-04T18:22:42.919Z,34.44
2022-08-04T18:24:56.311Z,34.40
2022-08-04T18:27:06.233Z,34.34
2022-08-04T18:29:31.819Z,34.29
2022-08-04T18:31:37.676Z,34.22
2022-08-04T18:33:42.564Z,34.16
2022-08-04T18:38:23.378Z,34.03
2022-08-04T18:40:36.839Z,33.97
2022-08-04T18:42:52.688Z,33.92
2022-08-04T18:44:58.341Z,33.88
2022-08-04T18:47:22.320Z,33.84
2022-08-04T18:50:31.993Z,33.78
2022-08-04T18:51:54.420Z,33.71
2022-08-04T18:53:59.464Z,33.66
2022-08-04T18:56:06.243Z,33.60
2022-08-04T18:58:27.216Z,33.54
2022-08-04T19:00:32.781Z,33.48
2022-08-04T19:02:39.496Z,33.44
2022-08-04T19:04:49.601Z,33.41
2022-08-04T19:06:57.496Z,33.35
2022-08-04T19:09:23.645Z,33.27
2022-08-04T19:11:54.166Z,33.20
2022-08-04T19:14:03.536Z,33.16
2022-08-04T19:16:16.635Z,33.10
2022-08-04T19:18:21.860Z,33.04
2022-08-04T19:20:29.350Z,32.98
2022-08-04T19:22:36.090Z,32.94
2022-08-04T19:24:59.325Z,32.87
2022-08-04T19:27:07.430Z,32.82
2022-08-04T19:29:15.822Z,32.78
2022-08-04T19:31:28.065Z,32.73
2022-08-04T19:33:58.590Z,32.66
2022-08-04T19:36:04.742Z,32.60
2022-08-04T19:38:09.916Z,32.57
2022-08-04T19:40:33.892Z,32.52
2022-08-04T19:42:40.413Z,32.46
2022-08-04T19:44:48.030Z,32.44
2022-08-04T19:46:53.807Z,32.42
2022-08-04T19:49:00.732Z,32.37
2022-08-04T19:51:05.853Z,32.35
2022-08-04T19:53:18.759Z,32.29
2022-08-04T19:55:37.229Z,32.27
2022-08-04T19:57:46.118Z,32.21
2022-08-04T19:59:54.996Z,32.21
2022-08-04T20:02:00.058Z,32.18
2022-08-04T20:04:09.434Z,32.16
2022-08-04T20:06:15.858Z,32.12
2022-08-04T20:08:20.783Z,32.09
2022-08-04T20:10:25.663Z,32.06
2022-08-04T20:12:30.545Z,32.02
2022-08-04T20:14:35.105Z,31.93
2022-08-04T20:16:42.564Z,31.89
2022-08-04T20:21:19.581Z,31.79
2022-08-04T20:23:48.183Z,31.80
2022-08-04T20:25:54.185Z,31.77
2022-08-04T20:28:00.893Z,31.78
2022-08-04T20:30:10.846Z,31.76
2022-08-04T20:32:25.978Z,31.73
2022-08-04T20:34:30.892Z,31.72
2022-08-04T20:36:37.815Z,31.70
2022-08-04T20:38:55.685Z,31.66
2022-08-04T20:41:01.339Z,31.66
2022-08-04T20:43:06.330Z,31.63
2022-08-04T20:45:16.410Z,31.58
2022-08-04T20:47:26.270Z,31.56
2022-08-04T20:49:36.188Z,31.50
2022-08-04T20:51:43.389Z,31.47
2022-08-04T20:53:53.444Z,31.44
2022-08-04T20:55:58.699Z,31.40
2022-08-04T20:58:04.287Z,31.36
2022-08-04T21:00:13.190Z,31.31
2022-08-04T21:02:20.490Z,31.25
2022-08-04T21:04:31.574Z,31.20
2022-08-04T21:06:36.959Z,31.18
2022-08-04T21:08:41.942Z,31.16
2022-08-04T21:11:01.872Z,31.11
2022-08-04T21:13:08.142Z,31.05
2022-08-04T21:15:16.567Z,31.01
2022-08-04T21:17:58.712Z,30.94
2022-08-04T21:19:57.409Z,30.86
2022-08-04T21:22:04.209Z,30.80
2022-08-04T21:24:10.261Z,30.74
2022-08-04T21:26:26.005Z,30.70
2022-08-04T21:28:31.067Z,30.64
2022-08-04T21:30:52.309Z,30.61
2022-08-04T21:32:58.057Z,30.55
2022-08-04T21:35:10.561Z,30.48
2022-08-04T21:37:24.855Z,30.41
2022-08-04T21:39:50.790Z,30.33
2022-08-04T21:42:29.769Z,30.31
2022-08-04T21:44:28.801Z,30.28
2022-08-04T21:46:33.460Z,30.22
2022-08-04T21:48:48.622Z,30.19
2022-08-04T21:50:57.427Z,30.17
2022-08-04T21:53:02.315Z,30.14
2022-08-04T21:55:07.141Z,30.10
2022-08-04T21:57:12.436Z,30.06
2022-08-04T21:59:30.613Z,30.06
2022-08-04T22:01:52.082Z,30.01
2022-08-04T22:03:59.835Z,29.96
2022-08-04T22:06:07.060Z,29.89
2022-08-04T22:08:19.965Z,29.87
2022-08-04T22:12:52.113Z,29.82
2022-08-04T22:17:22.086Z,29.77
2022-08-04T22:21:55.362Z,29.72
2022-08-04T22:24:00.597Z,29.68
2022-08-04T22:26:07.469Z,29.67
2022-08-04T22:28:12.397Z,29.66
2022-08-04T22:30:23.942Z,29.64
2022-08-04T22:32:28.913Z,29.63
2022-08-04T22:34:34.814Z,29.56
2022-08-04T22:36:39.836Z,29.49
2022-08-04T22:38:56.858Z,29.46
2022-08-04T22:41:12.716Z,29.43
2022-08-04T22:43:32.480Z,29.43
2022-08-04T22:45:44.341Z,29.38
2022-08-04T22:47:52.851Z,29.35
2022-08-04T22:50:21.741Z,29.31
2022-08-04T22:52:27.854Z,29.27
2022-08-04T22:54:39.197Z,29.25
2022-08-04T22:56:45.821Z,29.22
2022-08-04T22:58:51.448Z,29.19
2022-08-04T23:00:58.184Z,29.15
2022-08-04T23:03:03.343Z,29.12
2022-08-04T23:05:11.507Z,29.09
2022-08-04T23:07:24.147Z,29.02
2022-08-04T23:09:50.253Z,29.01
2022-08-04T23:12:22.233Z,28.97
2022-08-04T23:14:21.894Z,28.91
2022-08-04T23:16:27.209Z,28.86
2022-08-04T23:18:33.034Z,28.82
2022-08-04T23:20:39.939Z,28.79
2022-08-04T23:22:44.812Z,28.78
2022-08-04T23:24:57.078Z,28.76
2022-08-04T23:27:02.475Z,28.75
2022-08-04T23:29:07.225Z,28.69
2022-08-04T23:31:12.248Z,28.65
2022-08-04T23:33:18.858Z,28.64
2022-08-04T23:35:24.716Z,28.61
2022-08-04T23:37:35.442Z,28.61
2022-08-04T23:40:03.992Z,28.59
2022-08-04T23:42:08.569Z,28.54
2022-08-04T23:44:24.675Z,28.54
2022-08-04T23:46:30.394Z,28.49
2022-08-04T23:48:36.015Z,28.47
2022-08-04T23:50:40.935Z,28.48
2022-08-04T23:52:47.053Z,28.46
2022-08-04T23:54:54.522Z,28.47
2022-08-04T23:57:00.369Z,28.44
2022-08-04T23:59:17.994Z,28.43
